Terminal Aerodrome Forecast
Issued by NWS

Home | Current Version | Previous Version | Text Only | Print | Product List | Glossary On
Versions: 1 2 3 4 5 6 7 8 9 10 11 12 13 14 15 16 17
795
FTUS45 KRIW 271246 AAA
TAFRKS
TAF AMD
KRKS 271246Z 2713/2812 26025G35KT P6SM SCT025 BKN050
      TEMPO 2713/2717 BKN025
     FM280200 28020G28KT P6SM VCSH SCT015 BKN025
     FM280500 26016G24KT 4SM -SN BKN015=

USA.gov is the U.S. government's official web portal to all federal, state and local government web resources and services.